sensor_id;sensor_type;location;lat;lon;timestamp;P1;durP1;ratioP1;P2;durP2;ratioP2
62338;SDS011;48368;53.406;6.214;2023-11-19T00:04:56;42.70;;;11.75;;
62338;SDS011;48368;53.406;6.214;2023-11-19T00:07:21;49.40;;;11.10;;
62338;SDS011;48368;53.406;6.214;2023-11-19T00:09:47;53.10;;;10.65;;
62338;SDS011;48368;53.406;6.214;2023-11-19T00:12:12;45.05;;;9.85;;
62338;SDS011;48368;53.406;6.214;2023-11-19T00:14:38;38.63;;;8.90;;
62338;SDS011;48368;53.406;6.214;2023-11-19T00:17:04;39.63;;;9.85;;
62338;SDS011;48368;53.406;6.214;2023-11-19T00:19:29;47.15;;;10.02;;
62338;SDS011;48368;53.406;6.214;2023-11-19T00:21:55;45.42;;;9.63;;
62338;SDS011;48368;53.406;6.214;2023-11-19T00:24:20;45.63;;;10.25;;
62338;SDS011;48368;53.406;6.214;2023-11-19T00:26:46;43.03;;;9.55;;
62338;SDS011;48368;53.406;6.214;2023-11-19T00:29:12;46.22;;;8.63;;
62338;SDS011;48368;53.406;6.214;2023-11-19T00:31:38;55.05;;;9.30;;
62338;SDS011;48368;53.406;6.214;2023-11-19T00:34:04;53.95;;;8.52;;
62338;SDS011;48368;53.406;6.214;2023-11-19T00:36:31;51.42;;;8.95;;
62338;SDS011;48368;53.406;6.214;2023-11-19T00:38:57;46.25;;;7.97;;
62338;SDS011;48368;53.406;6.214;2023-11-19T00:41:23;39.70;;;7.13;;
62338;SDS011;48368;53.406;6.214;2023-11-19T00:43:48;39.95;;;7.45;;
62338;SDS011;48368;53.406;6.214;2023-11-19T00:46:14;35.05;;;6.88;;
62338;SDS011;48368;53.406;6.214;2023-11-19T00:48:40;48.75;;;7.53;;
62338;SDS011;48368;53.406;6.214;2023-11-19T00:51:05;37.42;;;7.15;;
62338;SDS011;48368;53.406;6.214;2023-11-19T00:53:31;40.40;;;7.55;;
62338;SDS011;48368;53.406;6.214;2023-11-19T00:55:59;42.55;;;7.72;;
62338;SDS011;48368;53.406;6.214;2023-11-19T00:58:25;45.60;;;7.88;;
62338;SDS011;48368;53.406;6.214;2023-11-19T01:00:51;38.60;;;8.15;;
62338;SDS011;48368;53.406;6.214;2023-11-19T01:03:17;41.30;;;6.90;;
62338;SDS011;48368;53.406;6.214;2023-11-19T01:05:43;44.88;;;7.40;;
62338;SDS011;48368;53.406;6.214;2023-11-19T01:08:10;49.33;;;8.07;;
62338;SDS011;48368;53.406;6.214;2023-11-19T01:10:38;39.83;;;7.65;;
62338;SDS011;48368;53.406;6.214;2023-11-19T01:13:04;43.13;;;7.07;;
62338;SDS011;48368;53.406;6.214;2023-11-19T01:15:33;40.50;;;6.55;;
62338;SDS011;48368;53.406;6.214;2023-11-19T01:17:58;50.35;;;7.55;;
62338;SDS011;48368;53.406;6.214;2023-11-19T01:20:24;46.10;;;7.22;;
62338;SDS011;48368;53.406;6.214;2023-11-19T01:22:51;44.15;;;7.20;;
62338;SDS011;48368;53.406;6.214;2023-11-19T01:25:17;45.50;;;6.45;;
62338;SDS011;48368;53.406;6.214;2023-11-19T01:27:42;52.15;;;6.43;;
62338;SDS011;48368;53.406;6.214;2023-11-19T01:30:08;45.83;;;7.13;;
62338;SDS011;48368;53.406;6.214;2023-11-19T01:32:37;37.60;;;6.93;;
62338;SDS011;48368;53.406;6.214;2023-11-19T01:35:03;44.88;;;7.38;;
62338;SDS011;48368;53.406;6.214;2023-11-19T01:37:29;46.50;;;7.95;;
62338;SDS011;48368;53.406;6.214;2023-11-19T01:39:56;46.13;;;6.65;;
62338;SDS011;48368;53.406;6.214;2023-11-19T01:42:22;46.13;;;6.13;;
62338;SDS011;48368;53.406;6.214;2023-11-19T01:44:59;49.50;;;7.53;;
62338;SDS011;48368;53.406;6.214;2023-11-19T01:47:26;41.80;;;6.25;;
62338;SDS011;48368;53.406;6.214;2023-11-19T01:49:53;43.90;;;6.82;;
62338;SDS011;48368;53.406;6.214;2023-11-19T01:52:21;40.33;;;6.53;;
62338;SDS011;48368;53.406;6.214;2023-11-19T01:54:48;54.05;;;7.40;;
62338;SDS011;48368;53.406;6.214;2023-11-19T01:57:14;44.25;;;6.47;;
62338;SDS011;48368;53.406;6.214;2023-11-19T01:59:40;55.08;;;8.43;;
62338;SDS011;48368;53.406;6.214;2023-11-19T02:02:08;42.97;;;7.05;;
62338;SDS011;48368;53.406;6.214;2023-11-19T02:04:34;58.35;;;7.60;;
62338;SDS011;48368;53.406;6.214;2023-11-19T02:07:03;53.53;;;7.43;;
62338;SDS011;48368;53.406;6.214;2023-11-19T02:09:29;44.55;;;6.50;;
62338;SDS011;48368;53.406;6.214;2023-11-19T02:11:55;46.38;;;6.95;;
62338;SDS011;48368;53.406;6.214;2023-11-19T02:14:25;60.13;;;8.57;;
62338;SDS011;48368;53.406;6.214;2023-11-19T02:16:51;51.55;;;7.78;;
62338;SDS011;48368;53.406;6.214;2023-11-19T02:19:20;45.80;;;7.68;;
62338;SDS011;48368;53.406;6.214;2023-11-19T02:21:45;46.83;;;7.35;;
62338;SDS011;48368;53.406;6.214;2023-11-19T02:24:12;46.45;;;7.50;;
62338;SDS011;48368;53.406;6.214;2023-11-19T02:29:09;54.80;;;7.80;;
62338;SDS011;48368;53.406;6.214;2023-11-19T02:31:36;51.47;;;7.97;;
62338;SDS011;48368;53.406;6.214;2023-11-19T02:34:02;59.72;;;8.48;;
62338;SDS011;48368;53.406;6.214;2023-11-19T02:36:28;49.38;;;7.07;;
62338;SDS011;48368;53.406;6.214;2023-11-19T02:38:53;49.80;;;7.38;;
62338;SDS011;48368;53.406;6.214;2023-11-19T02:41:20;49.35;;;6.72;;
62338;SDS011;48368;53.406;6.214;2023-11-19T02:43:45;55.40;;;8.55;;
62338;SDS011;48368;53.406;6.214;2023-11-19T02:46:13;57.00;;;7.30;;
62338;SDS011;48368;53.406;6.214;2023-11-19T02:48:39;52.60;;;7.38;;
62338;SDS011;48368;53.406;6.214;2023-11-19T02:51:05;49.30;;;7.60;;
62338;SDS011;48368;53.406;6.214;2023-11-19T02:53:34;58.58;;;8.00;;
62338;SDS011;48368;53.406;6.214;2023-11-19T02:56:02;43.58;;;7.70;;
62338;SDS011;48368;53.406;6.214;2023-11-19T02:58:36;42.38;;;6.43;;
62338;SDS011;48368;53.406;6.214;2023-11-19T03:01:03;39.42;;;6.85;;
62338;SDS011;48368;53.406;6.214;2023-11-19T03:03:37;48.65;;;6.85;;
62338;SDS011;48368;53.406;6.214;2023-11-19T03:06:05;58.58;;;7.60;;
62338;SDS011;48368;53.406;6.214;2023-11-19T03:08:32;42.00;;;7.72;;
62338;SDS011;48368;53.406;6.214;2023-11-19T03:10:58;44.15;;;7.63;;
62338;SDS011;48368;53.406;6.214;2023-11-19T03:13:24;49.40;;;8.23;;
62338;SDS011;48368;53.406;6.214;2023-11-19T03:15:49;44.50;;;7.03;;
62338;SDS011;48368;53.406;6.214;2023-11-19T03:18:16;52.45;;;7.90;;
62338;SDS011;48368;53.406;6.214;2023-11-19T03:20:42;59.63;;;8.23;;
62338;SDS011;48368;53.406;6.214;2023-11-19T03:23:08;49.60;;;8.15;;
62338;SDS011;48368;53.406;6.214;2023-11-19T03:25:33;49.88;;;7.00;;
62338;SDS011;48368;53.406;6.214;2023-11-19T03:27:59;44.53;;;6.70;;
62338;SDS011;48368;53.406;6.214;2023-11-19T03:30:27;52.55;;;8.13;;
62338;SDS011;48368;53.406;6.214;2023-11-19T03:32:53;55.58;;;6.60;;
62338;SDS011;48368;53.406;6.214;2023-11-19T03:35:19;50.47;;;8.45;;
62338;SDS011;48368;53.406;6.214;2023-11-19T03:37:45;52.83;;;7.28;;
62338;SDS011;48368;53.406;6.214;2023-11-19T03:40:11;41.95;;;7.05;;
62338;SDS011;48368;53.406;6.214;2023-11-19T03:42:37;44.60;;;7.47;;
62338;SDS011;48368;53.406;6.214;2023-11-19T03:45:05;49.13;;;7.57;;
62338;SDS011;48368;53.406;6.214;2023-11-19T03:47:33;48.35;;;7.20;;
62338;SDS011;48368;53.406;6.214;2023-11-19T03:49:59;57.60;;;7.95;;
62338;SDS011;48368;53.406;6.214;2023-11-19T03:52:25;55.65;;;8.05;;
62338;SDS011;48368;53.406;6.214;2023-11-19T03:54:54;41.90;;;7.20;;
62338;SDS011;48368;53.406;6.214;2023-11-19T03:57:20;46.97;;;7.75;;
62338;SDS011;48368;53.406;6.214;2023-11-19T03:59:47;45.60;;;6.57;;
62338;SDS011;48368;53.406;6.214;2023-11-19T04:02:13;49.35;;;7.03;;
62338;SDS011;48368;53.406;6.214;2023-11-19T04:04:38;49.22;;;7.80;;
62338;SDS011;48368;53.406;6.214;2023-11-19T04:07:05;42.10;;;6.97;;
62338;SDS011;48368;53.406;6.214;2023-11-19T04:09:30;52.22;;;7.55;;
62338;SDS011;48368;53.406;6.214;2023-11-19T04:11:58;52.40;;;8.38;;
62338;SDS011;48368;53.406;6.214;2023-11-19T04:14:25;45.13;;;7.45;;
62338;SDS011;48368;53.406;6.214;2023-11-19T04:16:51;39.25;;;7.68;;
62338;SDS011;48368;53.406;6.214;2023-11-19T04:19:17;48.47;;;7.70;;
62338;SDS011;48368;53.406;6.214;2023-11-19T04:21:43;48.22;;;8.45;;
62338;SDS011;48368;53.406;6.214;2023-11-19T04:24:09;52.00;;;9.27;;
62338;SDS011;48368;53.406;6.214;2023-11-19T04:26:42;42.80;;;6.80;;
62338;SDS011;48368;53.406;6.214;2023-11-19T04:29:13;40.80;;;7.38;;
62338;SDS011;48368;53.406;6.214;2023-11-19T04:31:40;50.63;;;7.85;;
62338;SDS011;48368;53.406;6.214;2023-11-19T04:34:06;49.83;;;7.82;;
62338;SDS011;48368;53.406;6.214;2023-11-19T04:36:32;45.80;;;7.13;;
62338;SDS011;48368;53.406;6.214;2023-11-19T04:38:59;48.60;;;7.57;;
62338;SDS011;48368;53.406;6.214;2023-11-19T04:41:25;39.38;;;6.65;;
62338;SDS011;48368;53.406;6.214;2023-11-19T04:43:55;40.08;;;6.55;;
62338;SDS011;48368;53.406;6.214;2023-11-19T04:46:21;48.42;;;7.72;;
62338;SDS011;48368;53.406;6.214;2023-11-19T04:48:46;45.47;;;7.22;;
62338;SDS011;48368;53.406;6.214;2023-11-19T04:51:12;57.78;;;8.40;;
62338;SDS011;48368;53.406;6.214;2023-11-19T04:53:38;51.10;;;8.73;;
62338;SDS011;48368;53.406;6.214;2023-11-19T04:56:12;52.88;;;8.55;;
62338;SDS011;48368;53.406;6.214;2023-11-19T04:58:38;47.58;;;8.25;;
62338;SDS011;48368;53.406;6.214;2023-11-19T05:01:04;44.00;;;7.43;;
62338;SDS011;48368;53.406;6.214;2023-11-19T05:03:30;52.72;;;7.80;;
62338;SDS011;48368;53.406;6.214;2023-11-19T05:05:57;44.28;;;7.03;;
62338;SDS011;48368;53.406;6.214;2023-11-19T05:08:23;49.33;;;7.18;;
62338;SDS011;48368;53.406;6.214;2023-11-19T05:10:48;52.60;;;8.13;;
62338;SDS011;48368;53.406;6.214;2023-11-19T05:13:14;46.83;;;7.90;;
62338;SDS011;48368;53.406;6.214;2023-11-19T05:15:40;48.47;;;7.80;;
62338;SDS011;48368;53.406;6.214;2023-11-19T05:18:06;56.92;;;8.85;;
62338;SDS011;48368;53.406;6.214;2023-11-19T05:20:32;55.65;;;7.82;;
62338;SDS011;48368;53.406;6.214;2023-11-19T05:22:57;45.42;;;9.10;;
62338;SDS011;48368;53.406;6.214;2023-11-19T05:25:25;50.58;;;8.02;;
62338;SDS011;48368;53.406;6.214;2023-11-19T05:27:51;53.95;;;7.47;;
62338;SDS011;48368;53.406;6.214;2023-11-19T05:30:17;55.38;;;8.40;;
62338;SDS011;48368;53.406;6.214;2023-11-19T05:32:43;55.50;;;7.43;;
62338;SDS011;48368;53.406;6.214;2023-11-19T05:35:09;60.42;;;10.10;;
62338;SDS011;48368;53.406;6.214;2023-11-19T05:37:34;52.50;;;7.72;;
62338;SDS011;48368;53.406;6.214;2023-11-19T05:40:00;52.08;;;7.88;;
62338;SDS011;48368;53.406;6.214;2023-11-19T05:42:28;52.80;;;8.25;;
62338;SDS011;48368;53.406;6.214;2023-11-19T05:44:54;64.40;;;10.90;;
62338;SDS011;48368;53.406;6.214;2023-11-19T05:47:20;45.75;;;7.30;;
62338;SDS011;48368;53.406;6.214;2023-11-19T05:49:45;57.28;;;9.40;;
62338;SDS011;48368;53.406;6.214;2023-11-19T05:52:11;55.53;;;7.80;;
62338;SDS011;48368;53.406;6.214;2023-11-19T05:54:37;55.40;;;7.70;;
62338;SDS011;48368;53.406;6.214;2023-11-19T05:57:06;50.63;;;8.95;;
62338;SDS011;48368;53.406;6.214;2023-11-19T05:59:35;44.55;;;7.53;;
62338;SDS011;48368;53.406;6.214;2023-11-19T06:02:01;48.90;;;8.70;;
62338;SDS011;48368;53.406;6.214;2023-11-19T06:04:27;62.58;;;10.25;;
62338;SDS011;48368;53.406;6.214;2023-11-19T06:06:53;50.67;;;7.55;;
62338;SDS011;48368;53.406;6.214;2023-11-19T06:09:20;51.65;;;7.35;;
62338;SDS011;48368;53.406;6.214;2023-11-19T06:11:48;48.38;;;7.78;;
62338;SDS011;48368;53.406;6.214;2023-11-19T06:14:16;50.78;;;7.57;;
62338;SDS011;48368;53.406;6.214;2023-11-19T06:16:41;47.70;;;7.82;;
62338;SDS011;48368;53.406;6.214;2023-11-19T06:19:07;47.00;;;8.02;;
62338;SDS011;48368;53.406;6.214;2023-11-19T06:21:33;53.53;;;8.15;;
62338;SDS011;48368;53.406;6.214;2023-11-19T06:23:58;44.13;;;7.22;;
62338;SDS011;48368;53.406;6.214;2023-11-19T06:26:24;51.95;;;7.22;;
62338;SDS011;48368;53.406;6.214;2023-11-19T06:28:50;47.45;;;7.53;;
62338;SDS011;48368;53.406;6.214;2023-11-19T06:31:15;51.25;;;8.52;;
62338;SDS011;48368;53.406;6.214;2023-11-19T06:33:41;36.17;;;7.32;;
62338;SDS011;48368;53.406;6.214;2023-11-19T06:36:08;48.05;;;8.13;;
62338;SDS011;48368;53.406;6.214;2023-11-19T06:38:34;50.60;;;7.13;;
62338;SDS011;48368;53.406;6.214;2023-11-19T06:41:00;53.30;;;8.18;;
62338;SDS011;48368;53.406;6.214;2023-11-19T06:43:26;46.78;;;6.20;;
62338;SDS011;48368;53.406;6.214;2023-11-19T06:45:53;49.25;;;8.93;;
62338;SDS011;48368;53.406;6.214;2023-11-19T06:48:19;44.53;;;7.25;;
62338;SDS011;48368;53.406;6.214;2023-11-19T06:50:44;50.70;;;7.45;;
62338;SDS011;48368;53.406;6.214;2023-11-19T06:53:10;50.85;;;8.98;;
62338;SDS011;48368;53.406;6.214;2023-11-19T06:55:36;42.67;;;7.55;;
62338;SDS011;48368;53.406;6.214;2023-11-19T06:58:01;46.80;;;8.90;;
62338;SDS011;48368;53.406;6.214;2023-11-19T07:00:31;44.58;;;6.80;;
62338;SDS011;48368;53.406;6.214;2023-11-19T07:03:01;51.38;;;6.57;;
62338;SDS011;48368;53.406;6.214;2023-11-19T07:05:30;49.70;;;6.70;;
62338;SDS011;48368;53.406;6.214;2023-11-19T07:07:55;53.08;;;7.57;;
62338;SDS011;48368;53.406;6.214;2023-11-19T07:10:21;52.13;;;9.52;;
62338;SDS011;48368;53.406;6.214;2023-11-19T07:12:46;49.05;;;7.63;;
62338;SDS011;48368;53.406;6.214;2023-11-19T07:15:15;40.90;;;7.75;;
62338;SDS011;48368;53.406;6.214;2023-11-19T07:17:42;43.17;;;6.35;;
62338;SDS011;48368;53.406;6.214;2023-11-19T07:20:10;51.78;;;7.80;;
62338;SDS011;48368;53.406;6.214;2023-11-19T07:22:38;42.10;;;7.45;;
62338;SDS011;48368;53.406;6.214;2023-11-19T07:25:04;41.70;;;8.45;;
62338;SDS011;48368;53.406;6.214;2023-11-19T07:27:43;41.17;;;7.38;;
62338;SDS011;48368;53.406;6.214;2023-11-19T07:50:26;45.78;;;6.43;;
62338;SDS011;48368;53.406;6.214;2023-11-19T07:53:07;34.78;;;6.63;;
62338;SDS011;48368;53.406;6.214;2023-11-19T08:14:06;41.13;;;7.97;;
62338;SDS011;48368;53.406;6.214;2023-11-19T08:23:44;38.22;;;6.07;;
62338;SDS011;48368;53.406;6.214;2023-11-19T08:26:14;38.47;;;7.13;;
62338;SDS011;48368;53.406;6.214;2023-11-19T08:28:41;38.45;;;5.78;;
62338;SDS011;48368;53.406;6.214;2023-11-19T08:31:06;38.15;;;6.72;;
62338;SDS011;48368;53.406;6.214;2023-11-19T08:33:32;38.00;;;6.78;;
62338;SDS011;48368;53.406;6.214;2023-11-19T08:35:58;42.85;;;6.05;;
62338;SDS011;48368;53.406;6.214;2023-11-19T08:38:24;35.05;;;6.18;;
62338;SDS011;48368;53.406;6.214;2023-11-19T08:40:50;48.55;;;8.38;;
62338;SDS011;48368;53.406;6.214;2023-11-19T08:43:17;41.92;;;6.97;;
62338;SDS011;48368;53.406;6.214;2023-11-19T08:45:42;42.08;;;7.45;;
62338;SDS011;48368;53.406;6.214;2023-11-19T08:48:08;55.83;;;7.18;;
62338;SDS011;48368;53.406;6.214;2023-11-19T08:50:34;50.63;;;7.88;;
62338;SDS011;48368;53.406;6.214;2023-11-19T08:53:00;52.90;;;6.88;;
62338;SDS011;48368;53.406;6.214;2023-11-19T08:55:25;43.30;;;6.30;;
62338;SDS011;48368;53.406;6.214;2023-11-19T08:57:51;44.00;;;7.13;;
62338;SDS011;48368;53.406;6.214;2023-11-19T09:54:09;42.83;;;5.38;;
62338;SDS011;48368;53.406;6.214;2023-11-19T10:59:34;37.97;;;5.80;;
62338;SDS011;48368;53.406;6.214;2023-11-19T11:02:03;31.55;;;5.68;;
62338;SDS011;48368;53.406;6.214;2023-11-19T11:04:32;34.38;;;6.38;;
62338;SDS011;48368;53.406;6.214;2023-11-19T11:39:32;36.92;;;5.55;;
62338;SDS011;48368;53.406;6.214;2023-11-19T11:45:34;32.75;;;6.30;;
62338;SDS011;48368;53.406;6.214;2023-11-19T11:52:11;29.55;;;5.28;;
62338;SDS011;48368;53.406;6.214;2023-11-19T11:54:43;35.80;;;4.68;;
62338;SDS011;48368;53.406;6.214;2023-11-19T12:25:18;28.48;;;5.03;;
62338;SDS011;48368;53.406;6.214;2023-11-19T12:30:38;33.17;;;5.38;;
62338;SDS011;48368;53.406;6.214;2023-11-19T12:33:13;41.92;;;5.50;;
62338;SDS011;48368;53.406;6.214;2023-11-19T12:36:18;30.13;;;5.90;;
62338;SDS011;48368;53.406;6.214;2023-11-19T12:42:42;34.67;;;6.30;;
62338;SDS011;48368;53.406;6.214;2023-11-19T13:59:18;38.13;;;6.20;;
62338;SDS011;48368;53.406;6.214;2023-11-19T14:05:03;28.58;;;4.28;;
62338;SDS011;48368;53.406;6.214;2023-11-19T14:07:39;30.27;;;6.93;;
62338;SDS011;48368;53.406;6.214;2023-11-19T14:21:17;35.40;;;5.53;;
62338;SDS011;48368;53.406;6.214;2023-11-19T14:23:43;24.73;;;3.95;;
62338;SDS011;48368;53.406;6.214;2023-11-19T14:26:08;22.20;;;3.25;;
62338;SDS011;48368;53.406;6.214;2023-11-19T14:28:34;28.60;;;3.90;;
62338;SDS011;48368;53.406;6.214;2023-11-19T14:31:00;23.48;;;3.65;;
62338;SDS011;48368;53.406;6.214;2023-11-19T14:33:25;29.42;;;4.68;;
62338;SDS011;48368;53.406;6.214;2023-11-19T14:35:51;35.47;;;5.88;;
62338;SDS011;48368;53.406;6.214;2023-11-19T14:38:20;36.58;;;5.40;;
62338;SDS011;48368;53.406;6.214;2023-11-19T14:50:23;33.33;;;5.10;;
62338;SDS011;48368;53.406;6.214;2023-11-19T14:58:38;34.50;;;5.43;;
62338;SDS011;48368;53.406;6.214;2023-11-19T15:01:11;40.35;;;5.15;;
62338;SDS011;48368;53.406;6.214;2023-11-19T15:03:37;39.63;;;5.20;;
62338;SDS011;48368;53.406;6.214;2023-11-19T15:06:02;34.80;;;4.95;;
62338;SDS011;48368;53.406;6.214;2023-11-19T15:08:28;33.40;;;5.00;;
62338;SDS011;48368;53.406;6.214;2023-11-19T15:10:55;34.88;;;7.70;;
62338;SDS011;48368;53.406;6.214;2023-11-19T15:13:23;41.50;;;6.50;;
62338;SDS011;48368;53.406;6.214;2023-11-19T15:15:49;34.55;;;5.15;;
62338;SDS011;48368;53.406;6.214;2023-11-19T15:25:36;27.83;;;5.00;;
62338;SDS011;48368;53.406;6.214;2023-11-19T15:28:01;38.42;;;7.03;;
62338;SDS011;48368;53.406;6.214;2023-11-19T15:30:27;38.97;;;6.13;;
62338;SDS011;48368;53.406;6.214;2023-11-19T15:32:53;42.08;;;5.47;;
62338;SDS011;48368;53.406;6.214;2023-11-19T15:35:20;43.13;;;5.85;;
62338;SDS011;48368;53.406;6.214;2023-11-19T15:37:45;43.97;;;7.90;;
62338;SDS011;48368;53.406;6.214;2023-11-19T15:40:11;33.50;;;5.38;;
62338;SDS011;48368;53.406;6.214;2023-11-19T15:42:38;35.67;;;5.97;;
62338;SDS011;48368;53.406;6.214;2023-11-19T15:47:40;37.45;;;5.95;;
62338;SDS011;48368;53.406;6.214;2023-11-19T15:50:08;40.78;;;5.53;;
62338;SDS011;48368;53.406;6.214;2023-11-19T15:52:35;41.92;;;6.38;;
62338;SDS011;48368;53.406;6.214;2023-11-19T15:55:03;33.47;;;5.07;;
62338;SDS011;48368;53.406;6.214;2023-11-19T15:57:29;30.25;;;5.22;;
62338;SDS011;48368;53.406;6.214;2023-11-19T15:59:54;44.50;;;6.57;;
62338;SDS011;48368;53.406;6.214;2023-11-19T16:02:20;38.72;;;6.88;;
62338;SDS011;48368;53.406;6.214;2023-11-19T16:04:46;31.02;;;5.03;;
62338;SDS011;48368;53.406;6.214;2023-11-19T16:07:15;39.00;;;6.00;;
62338;SDS011;48368;53.406;6.214;2023-11-19T16:09:41;34.15;;;5.93;;
62338;SDS011;48368;53.406;6.214;2023-11-19T16:12:07;42.95;;;6.03;;
62338;SDS011;48368;53.406;6.214;2023-11-19T16:14:35;37.92;;;5.65;;
62338;SDS011;48368;53.406;6.214;2023-11-19T16:17:01;27.05;;;4.38;;
62338;SDS011;48368;53.406;6.214;2023-11-19T16:19:27;33.60;;;6.10;;
62338;SDS011;48368;53.406;6.214;2023-11-19T16:21:53;34.70;;;5.32;;
62338;SDS011;48368;53.406;6.214;2023-11-19T16:24:19;34.33;;;6.40;;
62338;SDS011;48368;53.406;6.214;2023-11-19T16:26:44;32.80;;;5.63;;
62338;SDS011;48368;53.406;6.214;2023-11-19T16:29:10;34.92;;;4.88;;
62338;SDS011;48368;53.406;6.214;2023-11-19T16:31:36;32.88;;;4.53;;
62338;SDS011;48368;53.406;6.214;2023-11-19T16:34:02;33.60;;;6.32;;
62338;SDS011;48368;53.406;6.214;2023-11-19T16:36:31;34.05;;;5.22;;
62338;SDS011;48368;53.406;6.214;2023-11-19T16:38:59;33.92;;;4.88;;
62338;SDS011;48368;53.406;6.214;2023-11-19T16:41:25;26.13;;;4.45;;
62338;SDS011;48368;53.406;6.214;2023-11-19T16:43:51;28.10;;;6.57;;
62338;SDS011;48368;53.406;6.214;2023-11-19T16:46:19;32.47;;;4.63;;
62338;SDS011;48368;53.406;6.214;2023-11-19T16:48:45;36.38;;;5.30;;
62338;SDS011;48368;53.406;6.214;2023-11-19T16:51:14;38.20;;;4.57;;
62338;SDS011;48368;53.406;6.214;2023-11-19T16:53:46;36.58;;;5.05;;
62338;SDS011;48368;53.406;6.214;2023-11-19T16:56:16;37.87;;;5.53;;
62338;SDS011;48368;53.406;6.214;2023-11-19T16:58:42;31.33;;;5.57;;
62338;SDS011;48368;53.406;6.214;2023-11-19T17:01:12;32.97;;;4.65;;
62338;SDS011;48368;53.406;6.214;2023-11-19T17:03:41;35.45;;;5.80;;
62338;SDS011;48368;53.406;6.214;2023-11-19T17:06:06;36.83;;;4.88;;
62338;SDS011;48368;53.406;6.214;2023-11-19T17:08:33;32.90;;;4.60;;
62338;SDS011;48368;53.406;6.214;2023-11-19T17:11:02;32.88;;;5.18;;
62338;SDS011;48368;53.406;6.214;2023-11-19T17:13:31;31.13;;;4.47;;
62338;SDS011;48368;53.406;6.214;2023-11-19T17:16:02;31.00;;;4.95;;
62338;SDS011;48368;53.406;6.214;2023-11-19T17:18:28;24.83;;;5.93;;
62338;SDS011;48368;53.406;6.214;2023-11-19T17:20:54;36.30;;;4.90;;
62338;SDS011;48368;53.406;6.214;2023-11-19T17:23:20;27.95;;;4.18;;
62338;SDS011;48368;53.406;6.214;2023-11-19T17:25:46;27.55;;;5.13;;
62338;SDS011;48368;53.406;6.214;2023-11-19T17:28:12;25.08;;;5.03;;
62338;SDS011;48368;53.406;6.214;2023-11-19T17:30:38;31.80;;;4.57;;
62338;SDS011;48368;53.406;6.214;2023-11-19T17:33:04;28.45;;;4.47;;
62338;SDS011;48368;53.406;6.214;2023-11-19T17:35:30;26.42;;;4.93;;
62338;SDS011;48368;53.406;6.214;2023-11-19T17:37:56;20.45;;;3.53;;
62338;SDS011;48368;53.406;6.214;2023-11-19T17:40:22;31.95;;;4.97;;
62338;SDS011;48368;53.406;6.214;2023-11-19T17:42:49;21.60;;;4.13;;
62338;SDS011;48368;53.406;6.214;2023-11-19T17:45:15;29.13;;;4.63;;
62338;SDS011;48368;53.406;6.214;2023-11-19T17:47:40;32.58;;;4.82;;
62338;SDS011;48368;53.406;6.214;2023-11-19T17:50:06;25.08;;;4.25;;
62338;SDS011;48368;53.406;6.214;2023-11-19T17:52:34;32.35;;;5.63;;
62338;SDS011;48368;53.406;6.214;2023-11-19T17:55:00;34.85;;;5.32;;
62338;SDS011;48368;53.406;6.214;2023-11-19T17:57:28;35.05;;;6.07;;
62338;SDS011;48368;53.406;6.214;2023-11-19T17:59:54;32.30;;;4.43;;
62338;SDS011;48368;53.406;6.214;2023-11-19T18:02:19;33.78;;;4.63;;
62338;SDS011;48368;53.406;6.214;2023-11-19T18:04:45;32.10;;;5.03;;
62338;SDS011;48368;53.406;6.214;2023-11-19T18:07:17;27.40;;;4.78;;
62338;SDS011;48368;53.406;6.214;2023-11-19T18:09:43;38.20;;;5.93;;
62338;SDS011;48368;53.406;6.214;2023-11-19T18:12:09;27.20;;;4.43;;
62338;SDS011;48368;53.406;6.214;2023-11-19T18:14:38;31.58;;;4.70;;
62338;SDS011;48368;53.406;6.214;2023-11-19T18:17:05;37.03;;;5.18;;
62338;SDS011;48368;53.406;6.214;2023-11-19T18:19:31;40.28;;;6.07;;
62338;SDS011;48368;53.406;6.214;2023-11-19T18:21:57;33.67;;;6.18;;
62338;SDS011;48368;53.406;6.214;2023-11-19T18:24:24;31.85;;;4.90;;
62338;SDS011;48368;53.406;6.214;2023-11-19T18:26:50;37.08;;;5.97;;
62338;SDS011;48368;53.406;6.214;2023-11-19T18:29:16;39.10;;;6.63;;
62338;SDS011;48368;53.406;6.214;2023-11-19T18:31:42;37.53;;;5.28;;
62338;SDS011;48368;53.406;6.214;2023-11-19T18:34:08;34.15;;;4.95;;
62338;SDS011;48368;53.406;6.214;2023-11-19T18:36:34;38.38;;;6.47;;
62338;SDS011;48368;53.406;6.214;2023-11-19T18:39:04;35.30;;;5.80;;
62338;SDS011;48368;53.406;6.214;2023-11-19T18:41:29;39.28;;;6.75;;
62338;SDS011;48368;53.406;6.214;2023-11-19T18:43:55;32.33;;;5.20;;
62338;SDS011;48368;53.406;6.214;2023-11-19T18:46:21;37.40;;;4.63;;
62338;SDS011;48368;53.406;6.214;2023-11-19T18:48:47;32.20;;;5.30;;
62338;SDS011;48368;53.406;6.214;2023-11-19T18:51:12;30.70;;;5.05;;
62338;SDS011;48368;53.406;6.214;2023-11-19T18:53:39;40.97;;;5.88;;
62338;SDS011;48368;53.406;6.214;2023-11-19T18:56:07;28.10;;;5.93;;
62338;SDS011;48368;53.406;6.214;2023-11-19T18:58:35;33.72;;;4.97;;
62338;SDS011;48368;53.406;6.214;2023-11-19T19:01:01;38.35;;;5.93;;
62338;SDS011;48368;53.406;6.214;2023-11-19T19:03:26;26.17;;;4.20;;
62338;SDS011;48368;53.406;6.214;2023-11-19T19:05:56;32.47;;;5.18;;
62338;SDS011;48368;53.406;6.214;2023-11-19T19:08:25;28.02;;;4.68;;
62338;SDS011;48368;53.406;6.214;2023-11-19T19:10:51;27.40;;;5.22;;
62338;SDS011;48368;53.406;6.214;2023-11-19T19:13:20;25.30;;;4.75;;
62338;SDS011;48368;53.406;6.214;2023-11-19T19:15:47;32.72;;;5.05;;
62338;SDS011;48368;53.406;6.214;2023-11-19T19:18:13;24.00;;;4.40;;
62338;SDS011;48368;53.406;6.214;2023-11-19T19:20:38;25.00;;;4.22;;
62338;SDS011;48368;53.406;6.214;2023-11-19T19:23:04;29.98;;;4.80;;
62338;SDS011;48368;53.406;6.214;2023-11-19T19:25:32;24.55;;;4.10;;
62338;SDS011;48368;53.406;6.214;2023-11-19T19:27:58;27.23;;;3.97;;
62338;SDS011;48368;53.406;6.214;2023-11-19T19:30:23;23.70;;;4.13;;
62338;SDS011;48368;53.406;6.214;2023-11-19T19:32:49;22.15;;;4.50;;
62338;SDS011;48368;53.406;6.214;2023-11-19T19:35:17;28.88;;;4.18;;
62338;SDS011;48368;53.406;6.214;2023-11-19T19:37:43;22.90;;;4.32;;
62338;SDS011;48368;53.406;6.214;2023-11-19T19:40:09;26.13;;;4.80;;
62338;SDS011;48368;53.406;6.214;2023-11-19T19:42:37;19.00;;;4.18;;
62338;SDS011;48368;53.406;6.214;2023-11-19T19:45:06;23.17;;;4.93;;
62338;SDS011;48368;53.406;6.214;2023-11-19T19:47:37;31.38;;;4.22;;
62338;SDS011;48368;53.406;6.214;2023-11-19T19:50:03;25.60;;;4.68;;
62338;SDS011;48368;53.406;6.214;2023-11-19T19:52:32;29.02;;;5.15;;
62338;SDS011;48368;53.406;6.214;2023-11-19T19:55:00;27.52;;;5.65;;
62338;SDS011;48368;53.406;6.214;2023-11-19T19:57:26;28.05;;;4.70;;
62338;SDS011;48368;53.406;6.214;2023-11-19T19:59:52;25.73;;;4.38;;
62338;SDS011;48368;53.406;6.214;2023-11-19T20:02:20;30.02;;;5.47;;
62338;SDS011;48368;53.406;6.214;2023-11-19T20:04:47;30.95;;;4.88;;
62338;SDS011;48368;53.406;6.214;2023-11-19T20:07:12;21.35;;;4.68;;
62338;SDS011;48368;53.406;6.214;2023-11-19T20:09:38;19.15;;;3.75;;
62338;SDS011;48368;53.406;6.214;2023-11-19T20:12:06;21.70;;;3.58;;
62338;SDS011;48368;53.406;6.214;2023-11-19T20:14:33;12.68;;;3.28;;
62338;SDS011;48368;53.406;6.214;2023-11-19T20:16:59;18.27;;;3.83;;
62338;SDS011;48368;53.406;6.214;2023-11-19T20:19:25;22.77;;;4.22;;
62338;SDS011;48368;53.406;6.214;2023-11-19T20:21:51;17.45;;;3.10;;
62338;SDS011;48368;53.406;6.214;2023-11-19T20:24:16;13.50;;;3.38;;
62338;SDS011;48368;53.406;6.214;2023-11-19T20:26:42;16.23;;;3.15;;
62338;SDS011;48368;53.406;6.214;2023-11-19T20:29:08;15.43;;;2.92;;